Time;durP1;ratioP1;P1;durP2;ratioP2;P2;SDS_P1;SDS_P2;PMS_P1;PMS_P2;Temp;Humidity;BMP_temperature;BMP_pressure;BME280_temperature;BME280_humidity;BME280_pressure;Samples;Min_cycle;Max_cycle;Signal;HPM_P1;HPM_P2
2022/04/29 00:01:46;;;;;;;4.72;4.00;;;9.00;74.80;;;;;;618978;230;26657;-76
2022/04/29 00:04:13;;;;;;;4.50;3.65;;;9.00;74.80;;;;;;612775;234;26875;-76
2022/04/29 00:06:40;;;;;;;3.72;3.40;;;9.00;75.80;;;;;;612758;233;26632;-76
2022/04/29 00:09:07;;;;;;;4.05;3.60;;;9.10;75.60;;;;;;613835;231;26881;-76
2022/04/29 00:11:35;;;;;;;3.87;3.30;;;9.00;75.70;;;;;;614888;230;26547;-76
2022/04/29 00:14:02;;;;;;;4.35;3.50;;;9.00;75.70;;;;;;612872;233;26865;-76
2022/04/29 00:16:30;;;;;;;4.90;3.60;;;9.00;75.30;;;;;;615997;233;26571;-76
2022/04/29 00:18:58;;;;;;;3.92;3.53;;;8.90;75.20;;;;;;619553;230;26613;-77
2022/04/29 00:21:25;;;;;;;4.43;3.65;;;8.90;75.10;;;;;;622075;230;26816;-76
2022/04/29 00:23:52;;;;;;;4.75;3.87;;;8.90;75.00;;;;;;616646;231;26583;-76
2022/04/29 00:26:19;;;;;;;5.82;3.95;;;8.90;76.00;;;;;;615680;233;27260;-77
2022/04/29 00:28:48;;;;;;;4.25;3.83;;;8.90;74.60;;;;;;615623;233;26598;-76
2022/04/29 00:31:15;;;;;;;4.50;3.55;;;9.00;74.40;;;;;;622670;231;26555;-77
2022/04/29 00:33:43;;;;;;;5.47;3.53;;;8.90;74.40;;;;;;617932;231;26577;-76
2022/04/29 00:36:10;;;;;;;4.12;3.50;;;8.90;74.40;;;;;;612971;231;26866;-76
2022/04/29 00:38:37;;;;;;;5.45;4.30;;;8.90;75.10;;;;;;615166;231;26596;-77
2022/04/29 00:41:04;;;;;;;4.28;3.53;;;8.80;74.60;;;;;;613567;231;26824;-76
2022/04/29 00:43:32;;;;;;;4.22;3.80;;;8.70;74.90;;;;;;618099;231;26628;-77
2022/04/29 00:45:59;;;;;;;4.15;3.85;;;8.80;75.40;;;;;;618432;231;26569;-78
2022/04/29 00:48:27;;;;;;;3.75;3.45;;;8.70;75.10;;;;;;615711;231;26576;-77
2022/04/29 00:50:54;;;;;;;4.00;3.60;;;8.70;75.10;;;;;;612500;231;26652;-76
2022/04/29 00:53:21;;;;;;;4.87;3.97;;;8.70;75.30;;;;;;612469;235;26555;-77
2022/04/29 00:55:48;;;;;;;3.85;3.55;;;8.60;75.40;;;;;;612454;231;26841;-77
2022/04/29 00:58:17;;;;;;;4.10;3.55;;;8.60;75.80;;;;;;613729;228;26622;-77
2022/04/29 01:00:44;;;;;;;3.75;3.45;;;8.50;75.90;;;;;;613451;233;26801;-77
2022/04/29 01:03:12;;;;;;;4.05;3.40;;;8.40;76.60;;;;;;618540;231;26558;-77
2022/04/29 01:05:39;;;;;;;5.47;3.50;;;8.40;76.60;;;;;;619842;231;26557;-77
2022/04/29 01:08:07;;;;;;;3.92;3.62;;;8.40;76.70;;;;;;616271;227;26837;-77
2022/04/29 01:10:34;;;;;;;4.05;3.37;;;8.40;76.80;;;;;;614115;231;26814;-76
2022/04/29 01:13:01;;;;;;;3.78;3.37;;;8.40;76.40;;;;;;613245;231;26606;-76
2022/04/29 01:15:28;;;;;;;4.43;3.65;;;8.40;76.50;;;;;;612976;233;27265;-76
2022/04/29 01:17:56;;;;;;;5.45;3.35;;;8.30;77.00;;;;;;612668;234;26581;-76
2022/04/29 01:20:26;;;;;;;4.30;3.30;;;8.30;76.70;;;;;;620430;230;26564;-77
2022/04/29 01:22:53;;;;;;;3.85;3.37;;;8.30;76.70;;;;;;616319;230;26663;-76
2022/04/29 01:25:21;;;;;;;5.80;3.75;;;8.30;76.70;;;;;;618178;231;26834;-77
2022/04/29 01:27:49;;;;;;;5.47;3.60;;;8.30;76.80;;;;;;617721;231;27166;-76
2022/04/29 01:30:16;;;;;;;4.22;3.50;;;8.20;77.50;;;;;;614910;231;26613;-77
2022/04/29 01:32:43;;;;;;;4.10;3.40;;;8.20;77.70;;;;;;614816;231;26585;-76
2022/04/29 01:35:12;;;;;;;3.20;2.90;;;8.20;78.20;;;;;;614677;231;26568;-76
2022/04/29 01:37:39;;;;;;;3.65;3.00;;;8.10;78.10;;;;;;612402;233;26839;-76
2022/04/29 01:40:06;;;;;;;3.35;3.05;;;8.30;78.90;;;;;;613421;231;26611;-77
2022/04/29 01:42:34;;;;;;;3.60;3.30;;;8.30;78.80;;;;;;618577;231;26624;-76
2022/04/29 01:45:02;;;;;;;3.92;3.25;;;8.30;78.20;;;;;;613357;231;26620;-77
2022/04/29 01:47:29;;;;;;;3.95;3.37;;;8.30;78.20;;;;;;614597;234;26902;-76
2022/04/29 01:49:56;;;;;;;3.30;3.05;;;8.30;78.20;;;;;;615457;233;26568;-76
2022/04/29 01:52:23;;;;;;;5.35;3.65;;;8.20;78.60;;;;;;612456;235;26946;-77
2022/04/29 01:54:50;;;;;;;4.72;3.20;;;8.20;78.70;;;;;;612446;234;26556;-76
2022/04/29 01:57:18;;;;;;;2.92;2.72;;;8.10;78.90;;;;;;614662;231;26861;-78
2022/04/29 01:59:45;;;;;;;3.30;2.97;;;8.10;79.10;;;;;;614567;231;26624;-74
2022/04/29 02:02:14;;;;;;;4.03;3.58;;;8.10;78.50;;;;;;612597;231;26548;-74
2022/04/29 02:04:41;;;;;;;7.93;3.95;;;8.10;78.40;;;;;;612374;233;26833;-75
2022/04/29 02:07:08;;;;;;;4.47;3.62;;;8.10;78.60;;;;;;612423;234;26704;-75
2022/04/29 02:09:36;;;;;;;5.50;3.45;;;8.10;78.80;;;;;;616108;230;26591;-76
2022/04/29 02:12:05;;;;;;;7.65;3.37;;;8.10;79.00;;;;;;619573;230;26593;-76
2022/04/29 02:14:33;;;;;;;7.37;3.37;;;8.10;79.00;;;;;;616556;230;26640;-78
2022/04/29 02:17:02;;;;;;;5.22;3.12;;;8.00;78.70;;;;;;616117;233;26587;-76
2022/04/29 02:19:28;;;;;;;5.35;3.15;;;8.00;78.90;;;;;;616301;231;26795;-76
2022/04/29 02:21:54;;;;;;;3.25;2.92;;;8.00;79.60;;;;;;613133;231;26627;-76
2022/04/29 02:24:22;;;;;;;3.35;3.03;;;8.00;79.00;;;;;;614379;231;26837;-76
2022/04/29 02:26:50;;;;;;;3.65;3.15;;;7.90;77.70;;;;;;617547;230;26550;-76
2022/04/29 02:29:18;;;;;;;3.62;2.80;;;7.90;77.80;;;;;;612814;232;26568;-76
2022/04/29 02:31:45;;;;;;;4.15;3.08;;;7.90;78.00;;;;;;613807;233;26564;-76
2022/04/29 02:34:13;;;;;;;4.65;3.12;;;7.90;77.80;;;;;;615908;232;26845;-76
2022/04/29 02:36:41;;;;;;;3.10;2.90;;;7.90;77.00;;;;;;615892;233;26604;-77
2022/04/29 02:39:08;;;;;;;3.35;2.80;;;8.00;76.60;;;;;;615941;233;27364;-76
2022/04/29 02:41:36;;;;;;;3.28;2.90;;;7.80;78.10;;;;;;619521;230;26588;-77
2022/04/29 02:44:03;;;;;;;3.55;3.25;;;7.80;77.70;;;;;;615791;231;26616;-77
2022/04/29 02:46:31;;;;;;;3.55;2.80;;;7.80;77.70;;;;;;618089;231;26558;-73
2022/04/29 02:48:58;;;;;;;7.30;3.10;;;7.80;77.00;;;;;;615047;228;26899;-74
2022/04/29 02:51:25;;;;;;;7.97;4.05;;;7.80;76.90;;;;;;615591;234;26562;-74
2022/04/29 02:53:52;;;;;;;11.60;3.65;;;7.80;76.50;;;;;;614578;231;26808;-73
2022/04/29 02:56:19;;;;;;;4.32;3.28;;;7.70;76.60;;;;;;613797;233;26569;-77
2022/04/29 02:58:47;;;;;;;2.45;2.17;;;7.70;76.70;;;;;;616322;231;26728;-76
2022/04/29 03:01:15;;;;;;;2.97;2.72;;;7.70;76.70;;;;;;616161;231;26632;-76
2022/04/29 03:03:43;;;;;;;4.43;2.78;;;7.70;76.60;;;;;;612366;233;26612;-77
2022/04/29 03:06:10;;;;;;;2.90;2.42;;;7.60;76.50;;;;;;613574;234;26819;-76
2022/04/29 03:08:37;;;;;;;6.55;2.45;;;7.60;76.40;;;;;;615645;234;26585;-76
2022/04/29 03:11:04;;;;;;;2.90;2.70;;;7.60;76.70;;;;;;615540;231;26830;-77
2022/04/29 03:13:31;;;;;;;2.90;2.17;;;7.60;76.70;;;;;;613230;231;26568;-77
2022/04/29 03:15:58;;;;;;;2.58;2.37;;;7.60;76.80;;;;;;618498;228;26602;-77
2022/04/29 03:18:26;;;;;;;2.83;2.60;;;7.60;76.80;;;;;;614731;231;26602;-75
2022/04/29 03:20:56;;;;;;;2.58;2.37;;;7.60;76.80;;;;;;616284;231;26569;-76
2022/04/29 03:23:22;;;;;;;3.87;3.08;;;7.50;76.80;;;;;;614106;230;26575;-75
2022/04/29 03:25:48;;;;;;;10.25;4.20;;;7.60;76.20;;;;;;618463;230;26835;-76
2022/04/29 03:28:15;;;;;;;7.22;3.28;;;7.60;76.20;;;;;;621949;231;26546;-78
2022/04/29 03:30:42;;;;;;;6.50;2.97;;;7.60;75.80;;;;;;621789;230;26812;-76
2022/04/29 03:33:11;;;;;;;4.53;3.00;;;7.60;75.00;;;;;;621709;231;26619;-76
2022/04/29 03:35:38;;;;;;;5.07;2.80;;;7.60;75.00;;;;;;621638;231;26569;-76
2022/04/29 03:38:06;;;;;;;3.78;3.10;;;7.60;74.90;;;;;;621584;231;26613;-76
2022/04/29 03:40:33;;;;;;;3.35;2.90;;;7.60;75.10;;;;;;621432;231;26566;-77
2022/04/29 03:43:00;;;;;;;4.97;2.97;;;7.60;75.30;;;;;;621449;231;27312;-76
2022/04/29 03:45:27;;;;;;;5.87;2.85;;;7.50;75.20;;;;;;621378;231;26606;-75
2022/04/29 03:47:54;;;;;;;4.35;2.60;;;7.50;75.60;;;;;;621410;231;26882;-76
2022/04/29 03:50:23;;;;;;;3.30;2.37;;;7.50;75.20;;;;;;621400;231;26567;-77
2022/04/29 03:52:52;;;;;;;4.15;2.30;;;7.50;75.10;;;;;;621401;227;26575;-77
2022/04/29 03:55:20;;;;;;;3.72;2.60;;;7.60;75.80;;;;;;621340;231;26819;-76
2022/04/29 03:57:48;;;;;;;6.07;2.67;;;7.60;75.30;;;;;;621108;231;26837;-76
2022/04/29 04:00:17;;;;;;;3.25;2.20;;;7.50;75.10;;;;;;621139;231;26867;-77
2022/04/29 04:02:44;;;;;;;2.72;2.20;;;7.60;75.20;;;;;;621094;226;26632;-75
2022/04/29 04:05:11;;;;;;;4.40;2.75;;;7.60;75.00;;;;;;621095;231;26814;-75
2022/04/29 04:07:38;;;;;;;2.30;2.10;;;7.60;75.10;;;;;;621133;231;26648;-76
2022/04/29 04:10:06;;;;;;;3.92;2.40;;;7.70;75.10;;;;;;621044;231;26633;-77
2022/04/29 04:12:40;;;;;;;2.50;2.22;;;7.80;75.10;;;;;;620993;231;26618;-76
2022/04/29 04:15:07;;;;;;;3.08;2.55;;;7.70;74.90;;;;;;621101;231;26656;-76
2022/04/29 04:17:34;;;;;;;3.00;2.60;;;7.80;75.20;;;;;;621138;231;26651;-76
2022/04/29 04:20:02;;;;;;;2.30;2.08;;;7.80;75.10;;;;;;621086;231;26863;-76
2022/04/29 04:22:29;;;;;;;3.15;2.65;;;7.90;74.70;;;;;;621119;231;26635;-78
2022/04/29 04:24:56;;;;;;;3.10;2.30;;;7.90;74.70;;;;;;621035;231;26603;-77
2022/04/29 04:27:24;;;;;;;2.10;1.90;;;8.10;74.10;;;;;;620917;231;26682;-76
2022/04/29 04:29:51;;;;;;;3.45;2.47;;;8.10;74.10;;;;;;621057;231;26681;-75
2022/04/29 04:32:18;;;;;;;3.62;2.42;;;8.20;73.90;;;;;;621711;229;26594;-76
2022/04/29 04:34:50;;;;;;;3.53;2.47;;;8.30;76.40;;;;;;622510;230;26838;-76
2022/04/29 04:37:19;;;;;;;3.30;2.53;;;8.50;74.30;;;;;;622114;231;26574;-77
2022/04/29 04:39:45;;;;;;;3.30;2.20;;;8.50;74.40;;;;;;622340;230;26581;-76
2022/04/29 04:42:13;;;;;;;3.25;2.05;;;8.60;75.00;;;;;;622207;231;26589;-77
2022/04/29 04:44:40;;;;;;;3.40;2.40;;;8.80;74.90;;;;;;621634;231;27238;-77
2022/04/29 04:47:07;;;;;;;3.78;1.90;;;8.90;73.50;;;;;;621728;230;26674;-77
2022/04/29 04:49:34;;;;;;;4.68;2.50;;;9.00;73.90;;;;;;621701;230;26606;-77
2022/04/29 04:52:02;;;;;;;3.58;2.25;;;9.10;71.20;;;;;;621417;231;26571;-77
2022/04/29 04:54:29;;;;;;;2.53;2.22;;;9.00;71.10;;;;;;621406;231;26566;-77
2022/04/29 04:56:57;;;;;;;2.60;2.20;;;9.10;70.30;;;;;;621514;231;26816;-77
2022/04/29 04:59:25;;;;;;;3.05;2.20;;;9.30;70.30;;;;;;621504;231;26561;-77
2022/04/29 05:01:53;;;;;;;2.90;2.55;;;9.40;71.00;;;;;;621477;231;26547;-75
2022/04/29 05:04:21;;;;;;;5.00;2.40;;;9.60;69.30;;;;;;621353;231;26571;-75
2022/04/29 05:06:48;;;;;;;2.20;2.10;;;9.70;68.10;;;;;;621368;231;26661;-76
2022/04/29 05:09:16;;;;;;;3.72;2.30;;;9.70;68.10;;;;;;621142;231;26752;-77
2022/04/29 05:11:43;;;;;;;2.87;2.05;;;9.90;67.20;;;;;;621062;231;26636;-77
2022/04/29 05:14:10;;;;;;;3.72;2.25;;;10.00;65.20;;;;;;621061;231;27217;-76
2022/04/29 05:16:37;;;;;;;2.10;2.00;;;10.10;67.00;;;;;;621150;231;26621;-76
2022/04/29 05:19:04;;;;;;;3.72;2.60;;;10.20;65.20;;;;;;621110;231;26619;-76
2022/04/29 05:21:32;;;;;;;2.20;2.00;;;10.40;64.70;;;;;;621103;231;26620;-76
2022/04/29 05:24:00;;;;;;;2.28;2.05;;;10.40;66.40;;;;;;613624;231;26608;-75
2022/04/29 05:26:29;;;;;;;3.35;2.03;;;10.40;66.30;;;;;;612483;234;26676;-76
2022/04/29 05:28:56;;;;;;;2.47;2.28;;;10.40;66.20;;;;;;613681;231;26823;-77
2022/04/29 05:31:23;;;;;;;2.45;2.12;;;10.40;62.10;;;;;;621152;231;26618;-76
2022/04/29 05:33:50;;;;;;;3.22;2.10;;;10.40;60.70;;;;;;615736;231;26827;-76
2022/04/29 05:36:18;;;;;;;3.40;2.42;;;10.50;61.40;;;;;;612407;233;26622;-76
2022/04/29 05:43:51;;;;;;;3.40;2.20;;;10.80;61.00;;;;;;613052;232;26876;-76
2022/04/29 05:46:19;;;;;;;4.50;2.45;;;10.90;61.40;;;;;;613777;232;26640;-76
2022/04/29 05:48:46;;;;;;;2.90;2.40;;;10.90;60.70;;;;;;613451;234;26594;-77
2022/04/29 05:51:14;;;;;;;3.72;1.90;;;10.90;59.40;;;;;;613300;232;26556;-76
2022/04/29 05:53:42;;;;;;;3.03;2.10;;;11.10;62.90;;;;;;613091;233;26619;-77
2022/04/29 05:56:10;;;;;;;4.47;2.33;;;11.10;60.70;;;;;;613061;227;26609;-76
2022/04/29 05:58:38;;;;;;;4.15;2.42;;;11.10;59.20;;;;;;613094;233;26631;-76
2022/04/29 06:01:07;;;;;;;3.00;2.40;;;11.20;59.30;;;;;;613135;227;26586;-76
2022/04/29 06:03:34;;;;;;;2.25;1.95;;;11.20;58.90;;;;;;612795;234;26573;-76
2022/04/29 06:06:01;;;;;;;3.28;2.20;;;11.40;62.40;;;;;;612752;234;26595;-76
2022/04/29 06:08:28;;;;;;;2.90;2.30;;;11.50;58.80;;;;;;612698;233;26853;-76
2022/04/29 06:10:55;;;;;;;2.40;2.00;;;11.70;63.90;;;;;;612718;233;26571;-77
2022/04/29 06:13:23;;;;;;;2.25;1.80;;;11.90;61.20;;;;;;612688;234;26815;-77
2022/04/29 06:15:50;;;;;;;3.10;2.15;;;12.10;58.20;;;;;;612728;233;26564;-77
2022/04/29 06:18:17;;;;;;;2.67;2.12;;;12.30;60.20;;;;;;612715;231;26855;-76
2022/04/29 06:20:44;;;;;;;3.10;2.17;;;12.50;58.80;;;;;;612517;228;26585;-76
2022/04/29 06:23:12;;;;;;;3.80;2.47;;;12.70;56.90;;;;;;612496;234;26794;-77
2022/04/29 06:25:40;;;;;;;2.05;1.87;;;12.90;57.00;;;;;;612419;235;26630;-78
2022/04/29 06:28:08;;;;;;;3.40;1.90;;;13.00;60.70;;;;;;612418;234;26645;-76
2022/04/29 06:30:35;;;;;;;2.53;2.17;;;12.90;60.20;;;;;;612468;235;26847;-77
2022/04/29 06:33:02;;;;;;;2.78;2.33;;;13.10;58.80;;;;;;612438;233;26596;-77
2022/04/29 06:35:30;;;;;;;2.75;2.10;;;13.20;58.00;;;;;;612778;231;26846;-76
2022/04/29 06:37:57;;;;;;;2.67;2.05;;;13.30;57.90;;;;;;621129;231;26604;-77
2022/04/29 06:40:24;;;;;;;2.20;2.00;;;13.30;57.90;;;;;;621092;231;27301;-76
2022/04/29 06:42:51;;;;;;;2.08;1.90;;;13.50;60.50;;;;;;621134;231;26619;-76
2022/04/29 06:45:19;;;;;;;2.30;1.95;;;13.50;55.20;;;;;;621120;231;27264;-75
2022/04/29 06:47:46;;;;;;;2.92;2.03;;;13.60;58.50;;;;;;621132;231;26853;-75
2022/04/29 06:50:13;;;;;;;3.55;2.12;;;13.70;55.00;;;;;;621145;231;26627;-76
2022/04/29 06:52:40;;;;;;;2.33;2.12;;;13.90;57.70;;;;;;621072;231;26624;-76
2022/04/29 06:55:08;;;;;;;2.85;2.25;;;14.30;57.10;;;;;;621432;229;26622;-76
2022/04/29 06:57:36;;;;;;;3.25;2.00;;;14.20;56.90;;;;;;622658;231;26577;-76
2022/04/29 07:00:03;;;;;;;2.40;2.12;;;14.50;56.10;;;;;;622256;231;26810;-75
2022/04/29 07:02:31;;;;;;;2.15;1.92;;;14.70;59.40;;;;;;622011;230;26562;-76
2022/04/29 07:04:59;;;;;;;2.90;1.90;;;15.00;58.40;;;;;;621813;230;26844;-76
2022/04/29 07:07:28;;;;;;;1.95;1.75;;;15.10;52.80;;;;;;621621;231;26648;-77
2022/04/29 07:09:52;;;;;;;2.28;2.08;;;15.20;54.10;;;;;;621530;231;26834;-77
2022/04/29 07:12:19;;;;;;;2.12;1.90;;;15.40;52.70;;;;;;621691;230;26658;-77
2022/04/29 07:14:47;;;;;;;2.80;1.90;;;15.30;52.10;;;;;;621425;231;26558;-77
2022/04/29 07:17:14;;;;;;;4.18;2.15;;;15.10;48.10;;;;;;621397;231;26585;-77
2022/04/29 07:19:42;;;;;;;2.70;1.80;;;15.20;47.40;;;;;;621375;231;26567;-74
2022/04/29 07:22:10;;;;;;;2.78;1.87;;;15.20;47.40;;;;;;621344;231;26598;-76
2022/04/29 07:24:38;;;;;;;1.95;1.80;;;15.10;47.00;;;;;;621405;231;26816;-76
2022/04/29 07:27:06;;;;;;;2.35;2.12;;;15.10;46.40;;;;;;621385;231;26579;-77
2022/04/29 07:29:33;;;;;;;2.67;1.62;;;15.30;46.50;;;;;;621363;231;26557;-77
2022/04/29 07:32:00;;;;;;;1.90;1.80;;;15.50;46.30;;;;;;621266;231;26806;-78
2022/04/29 07:42:07;;;;;;;2.08;1.75;;;16.00;50.70;;;;;;621147;231;26624;-76
2022/04/29 07:44:34;;;;;;;2.17;1.67;;;15.90;46.20;;;;;;621017;231;27333;-76
2022/04/29 07:47:01;;;;;;;1.48;1.37;;;16.10;45.60;;;;;;621100;231;26553;-76
2022/04/29 07:49:29;;;;;;;2.53;1.95;;;16.20;45.00;;;;;;621105;227;26862;-76
2022/04/29 07:51:56;;;;;;;3.20;1.70;;;16.30;44.70;;;;;;621119;231;26660;-76
2022/04/29 07:54:24;;;;;;;2.08;1.80;;;16.20;44.50;;;;;;621079;231;26632;-75
2022/04/29 07:56:53;;;;;;;2.00;1.80;;;16.20;45.10;;;;;;621035;231;26823;-76
2022/04/29 07:59:20;;;;;;;2.65;1.98;;;16.30;50.30;;;;;;620922;231;26644;-76
2022/04/29 08:01:46;;;;;;;2.30;1.80;;;16.40;49.30;;;;;;620938;231;27027;-75
2022/04/29 08:04:13;;;;;;;2.28;1.92;;;16.60;49.80;;;;;;621010;231;26616;-75
2022/04/29 08:06:40;;;;;;;1.87;1.77;;;16.90;48.80;;;;;;621392;229;27456;-75
2022/04/29 08:09:08;;;;;;;2.03;1.40;;;17.00;50.60;;;;;;616412;230;26607;-73
2022/04/29 08:11:35;;;;;;;1.52;1.33;;;17.00;50.20;;;;;;616678;233;27129;-75
2022/04/29 08:14:06;;;;;;;2.45;1.60;;;17.00;48.20;;;;;;616576;232;26551;-78
2022/04/29 08:16:32;;;;;;;7.70;1.60;;;16.90;46.50;;;;;;616179;231;26563;-75
2022/04/29 08:18:58;;;;;;;2.95;1.80;;;16.90;45.80;;;;;;616357;230;26634;-74
2022/04/29 08:21:26;;;;;;;3.85;2.20;;;16.70;44.60;;;;;;616552;231;26596;-75
2022/04/29 08:23:54;;;;;;;2.28;2.08;;;16.70;44.60;;;;;;616936;230;26618;-75
2022/04/29 08:26:21;;;;;;;4.57;2.20;;;16.50;44.40;;;;;;618427;230;26564;-74
2022/04/29 08:28:48;;;;;;;2.30;2.10;;;16.40;44.50;;;;;;615185;231;26810;-74
2022/04/29 08:31:16;;;;;;;1.48;1.20;;;16.50;47.80;;;;;;616550;230;26557;-72
2022/04/29 08:33:43;;;;;;;1.42;1.08;;;16.80;48.50;;;;;;615296;231;26595;-74
2022/04/29 08:36:10;;;;;;;1.48;1.17;;;17.00;46.80;;;;;;615177;231;26559;-74
2022/04/29 08:38:38;;;;;;;1.55;1.20;;;17.30;47.50;;;;;;615529;230;26572;-73
2022/04/29 08:41:06;;;;;;;2.67;1.70;;;17.70;47.40;;;;;;612767;234;26792;-72
2022/04/29 08:43:32;;;;;;;1.35;1.12;;;17.70;47.80;;;;;;612927;234;26782;-73
2022/04/29 08:46:00;;;;;;;2.97;1.40;;;17.80;47.50;;;;;;612771;235;26588;-73
2022/04/29 08:48:30;;;;;;;1.55;1.20;;;18.00;46.60;;;;;;612814;233;26848;-75
2022/04/29 08:50:58;;;;;;;2.58;1.50;;;18.10;46.20;;;;;;612835;233;26588;-75
2022/04/29 08:53:25;;;;;;;1.50;1.40;;;18.20;50.50;;;;;;612843;233;26580;-77
2022/04/29 08:58:40;;;;;;;2.97;1.60;;;18.20;46.40;;;;;;609485;234;26626;-76
2022/04/29 09:01:10;;;;;;;2.72;2.12;;;18.10;49.50;;;;;;612848;233;26633;-75
2022/04/29 09:03:37;;;;;;;1.70;1.55;;;17.90;47.60;;;;;;612850;235;26842;-75
2022/04/29 09:06:04;;;;;;;1.73;1.62;;;17.90;48.20;;;;;;612513;233;26629;-76
2022/04/29 09:08:33;;;;;;;3.97;2.03;;;17.90;47.70;;;;;;613934;231;26856;-76
2022/04/29 09:11:00;;;;;;;2.72;1.95;;;17.80;46.90;;;;;;616223;231;26565;-78
2022/04/29 09:13:28;;;;;;;2.83;1.90;;;17.70;47.30;;;;;;617251;231;26553;-74
2022/04/29 09:15:58;;;;;;;1.40;1.30;;;17.40;45.60;;;;;;614857;231;26572;-76
2022/04/29 09:18:33;;;;;;;3.55;2.10;;;17.20;45.30;;;;;;616939;229;26597;-75
2022/04/29 09:21:00;;;;;;;2.20;2.00;;;17.20;45.30;;;;;;616074;231;26572;-76
2022/04/29 09:23:27;;;;;;;2.30;2.00;;;17.50;45.20;;;;;;615158;231;26836;-75
2022/04/29 09:25:56;;;;;;;3.35;2.28;;;17.70;45.60;;;;;;615415;231;26570;-74
2022/04/29 09:28:22;;;;;;;1.87;1.27;;;17.90;44.70;;;;;;614614;227;26803;-75
2022/04/29 09:30:50;;;;;;;1.30;1.20;;;18.30;47.50;;;;;;616995;230;26634;-76
2022/04/29 09:33:19;;;;;;;1.20;1.10;;;18.30;47.80;;;;;;614708;231;26612;-78
2022/04/29 09:35:47;;;;;;;1.23;1.20;;;18.20;47.60;;;;;;618735;227;26580;-74
2022/04/29 09:40:47;;;;;;;2.45;1.50;;;18.30;49.40;;;;;;614524;230;26568;-75
2022/04/29 09:43:14;;;;;;;1.98;1.50;;;18.30;45.60;;;;;;616267;231;26581;-76
2022/04/29 09:45:42;;;;;;;5.78;1.85;;;18.10;46.20;;;;;;615094;231;27285;-71
2022/04/29 09:48:09;;;;;;;8.20;1.90;;;18.10;46.20;;;;;;614126;233;26960;-72
2022/04/29 09:50:52;;;;;;;12.48;2.20;;;18.00;46.30;;;;;;613882;233;26563;-70
2022/04/29 09:53:20;;;;;;;7.20;2.22;;;17.60;44.60;;;;;;616539;231;26797;-69
2022/04/29 09:56:07;;;;;;;7.75;2.28;;;17.50;45.30;;;;;;615098;231;26814;-71
2022/04/29 09:58:34;;;;;;;92.55;19.02;;;17.10;45.00;;;;;;615390;228;27160;-72
2022/04/29 10:01:02;;;;;;;1077.07;125.97;;;17.00;45.90;;;;;;615731;228;26566;-71
2022/04/29 10:03:28;;;;;;;117.43;24.45;;;16.90;45.20;;;;;;616034;231;26840;-71
2022/04/29 10:05:56;;;;;;;111.30;23.20;;;16.90;46.60;;;;;;616834;231;26608;-71
2022/04/29 10:08:23;;;;;;;115.93;22.58;;;17.00;46.10;;;;;;615738;231;26608;-77
2022/04/29 10:10:51;;;;;;;38.67;8.85;;;17.10;48.10;;;;;;615213;231;26615;-76
2022/04/29 10:13:19;;;;;;;57.58;14.23;;;17.00;48.00;;;;;;615073;231;26541;-76
2022/04/29 10:15:46;;;;;;;65.32;15.15;;;17.30;47.50;;;;;;615253;231;26569;-75
2022/04/29 10:23:20;;;;;;;42.67;11.88;;;17.40;45.50;;;;;;615968;233;26533;-76
2022/04/29 10:25:47;;;;;;;38.22;10.65;;;17.30;45.00;;;;;;615579;233;26563;-76
2022/04/29 10:28:15;;;;;;;16.90;6.25;;;17.30;45.00;;;;;;615643;233;26588;-76
2022/04/29 10:30:43;;;;;;;19.62;6.85;;;17.20;47.50;;;;;;616610;231;26607;-76
2022/04/29 10:33:11;;;;;;;2.20;1.55;;;17.10;46.90;;;;;;616929;233;27220;-76
2022/04/29 10:35:49;;;;;;;9.20;3.33;;;17.00;46.80;;;;;;616167;233;27125;-77
2022/04/29 10:38:15;;;;;;;6.50;2.65;;;17.10;46.10;;;;;;616476;233;26567;-76
2022/04/29 10:40:43;;;;;;;2.50;1.52;;;17.20;46.20;;;;;;616262;232;26567;-76
2022/04/29 10:43:13;;;;;;;3.33;2.10;;;17.20;46.30;;;;;;616224;228;26581;-76
2022/04/29 10:45:54;;;;;;;12.45;4.05;;;17.20;46.20;;;;;;616167;233;26563;-76
2022/04/29 10:48:33;;;;;;;9.50;3.50;;;17.00;45.90;;;;;;614872;233;26579;-76
2022/04/29 10:51:08;;;;;;;5.90;2.00;;;17.10;45.20;;;;;;615942;232;26624;-76
2022/04/29 10:53:38;;;;;;;6.10;2.65;;;17.10;45.00;;;;;;615903;233;26619;-76
2022/04/29 10:56:31;;;;;;;2.30;1.50;;;17.10;44.90;;;;;;615876;232;26609;-77
2022/04/29 10:59:14;;;;;;;5.43;2.72;;;17.10;46.60;;;;;;614577;233;26858;-77
2022/04/29 11:01:40;;;;;;;4.93;1.67;;;17.20;45.30;;;;;;615923;233;26612;-77
2022/04/29 11:04:08;;;;;;;9.05;2.70;;;17.40;44.70;;;;;;615902;232;26645;-77
2022/04/29 11:06:38;;;;;;;8.95;2.90;;;17.30;44.60;;;;;;613368;233;27228;-76
2022/04/29 11:09:18;;;;;;;7.93;3.00;;;17.50;43.90;;;;;;614753;234;26570;-77
2022/04/29 11:11:46;;;;;;;6.07;1.90;;;17.40;43.90;;;;;;615606;234;26565;-77
2022/04/29 11:14:15;;;;;;;1.92;1.60;;;17.50;44.70;;;;;;615632;228;26570;-77
2022/04/29 11:16:48;;;;;;;2.20;1.52;;;17.50;44.70;;;;;;621060;231;26586;-77
2022/04/29 11:19:18;;;;;;;2.47;1.33;;;17.50;45.00;;;;;;621476;231;26576;-76
2022/04/29 11:26:52;;;;;;;2.22;1.20;;;18.10;47.80;;;;;;612834;233;26606;-76
2022/04/29 11:29:19;;;;;;;2.75;1.80;;;18.10;46.60;;;;;;612832;235;26603;-76
2022/04/29 11:31:47;;;;;;;1.80;1.20;;;18.10;44.60;;;;;;612853;235;26576;-77
2022/04/29 11:34:15;;;;;;;4.07;2.03;;;18.10;43.40;;;;;;612478;228;26612;-77
2022/04/29 11:36:42;;;;;;;2.40;1.60;;;18.10;43.40;;;;;;612367;235;26604;-77
2022/04/29 11:39:13;;;;;;;1.58;1.48;;;18.10;43.10;;;;;;612506;233;26568;-77
2022/04/29 11:41:40;;;;;;;3.78;1.80;;;18.10;42.90;;;;;;613060;232;26802;-77
2022/04/29 11:44:08;;;;;;;1.33;1.20;;;18.40;46.10;;;;;;612465;234;26632;-77
2022/04/29 11:46:36;;;;;;;1.75;1.27;;;18.50;47.40;;;;;;613538;234;26556;-77
2022/04/29 11:49:04;;;;;;;1.50;1.30;;;18.60;47.90;;;;;;611690;234;26575;-78
2022/04/29 11:51:33;;;;;;;1.65;1.02;;;18.70;49.90;;;;;;613228;232;26563;-77
2022/04/29 11:54:00;;;;;;;1.67;1.42;;;18.70;49.70;;;;;;613076;235;26648;-77
2022/04/29 11:56:33;;;;;;;1.10;1.10;;;18.80;43.10;;;;;;613057;234;26820;-78
2022/04/29 11:59:00;;;;;;;2.00;1.50;;;18.70;42.50;;;;;;612768;234;26831;-78
2022/04/29 12:01:28;;;;;;;3.47;1.85;;;18.90;44.00;;;;;;612668;234;26545;-76
2022/04/29 12:03:55;;;;;;;3.00;1.92;;;19.00;42.40;;;;;;612750;228;26840;-77
2022/04/29 12:06:22;;;;;;;2.72;1.70;;;19.00;42.40;;;;;;612749;234;26557;-77
2022/04/29 12:08:50;;;;;;;1.77;1.60;;;19.10;42.50;;;;;;612719;233;26835;-77
2022/04/29 12:11:23;;;;;;;2.65;1.70;;;19.30;41.90;;;;;;612684;233;26552;-77
2022/04/29 12:13:50;;;;;;;2.92;1.90;;;19.50;40.70;;;;;;612730;233;26579;-77
2022/04/29 12:16:18;;;;;;;2.22;1.65;;;19.80;40.40;;;;;;612759;233;26563;-70
2022/04/29 12:18:45;;;;;;;1.62;1.17;;;19.80;40.40;;;;;;612504;233;26589;-70
2022/04/29 12:21:13;;;;;;;4.70;2.10;;;20.40;44.70;;;;;;614873;233;26563;-70
2022/04/29 12:23:40;;;;;;;3.50;1.92;;;20.80;43.20;;;;;;615117;233;26778;-70
2022/04/29 12:26:07;;;;;;;2.67;1.92;;;21.10;40.10;;;;;;615981;233;26558;-70
2022/04/29 12:28:37;;;;;;;3.87;1.83;;;21.10;39.30;;;;;;616079;234;26825;-71
2022/04/29 12:36:16;;;;;;;1.95;1.62;;;20.60;40.10;;;;;;616008;233;26999;-69
2022/04/29 12:38:44;;;;;;;6.12;2.08;;;20.50;39.60;;;;;;616001;233;26557;-70
2022/04/29 12:41:16;;;;;;;2.35;1.90;;;20.60;39.00;;;;;;615998;234;26773;-70
2022/04/29 12:43:43;;;;;;;2.50;2.30;;;20.60;39.10;;;;;;615172;234;26795;-70
2022/04/29 12:46:13;;;;;;;2.70;1.60;;;20.80;38.50;;;;;;615679;233;26561;-70
2022/04/29 12:48:48;;;;;;;2.12;1.45;;;21.70;38.00;;;;;;615678;232;26610;-69
2022/04/29 12:51:23;;;;;;;2.15;1.70;;;21.90;38.50;;;;;;615636;233;26565;-70
2022/04/29 12:53:50;;;;;;;2.65;1.55;;;21.90;38.40;;;;;;616279;231;26590;-70
2022/04/29 12:56:24;;;;;;;1.45;1.17;;;22.40;38.60;;;;;;616988;232;26587;-70
2022/04/29 12:58:51;;;;;;;3.47;1.40;;;22.30;38.50;;;;;;616426;233;26591;-70
2022/04/29 13:01:19;;;;;;;1.00;1.00;;;22.40;41.60;;;;;;616672;232;26575;-70
2022/04/29 13:03:50;;;;;;;5.50;2.05;;;22.70;38.60;;;;;;616358;231;26813;-70
2022/04/29 13:06:20;;;;;;;3.80;1.92;;;23.30;36.60;;;;;;615887;230;26621;-69
2022/04/29 13:08:45;;;;;;;5.12;2.08;;;23.30;36.60;;;;;;617824;230;26691;-69
2022/04/29 13:11:14;;;;;;;1.80;1.67;;;24.00;37.50;;;;;;615988;230;26845;-69
2022/04/29 13:13:41;;;;;;;2.17;1.70;;;24.00;37.50;;;;;;617192;230;26613;-70
2022/04/29 13:16:08;;;;;;;1.10;1.10;;;24.90;36.20;;;;;;616121;228;27282;-72
2022/04/29 13:18:36;;;;;;;1.15;1.00;;;25.40;36.70;;;;;;615202;231;26601;-70
2022/04/29 13:21:08;;;;;;;2.12;1.10;;;26.00;37.80;;;;;;614887;231;26564;-71
2022/04/29 13:23:35;;;;;;;2.47;1.60;;;27.10;38.40;;;;;;619506;230;26584;-71
2022/04/29 13:26:03;;;;;;;1.95;1.17;;;27.60;33.80;;;;;;612772;233;26568;-71
2022/04/29 13:28:32;;;;;;;1.30;1.20;;;27.60;33.60;;;;;;612766;235;26794;-71